Pagrindinis puslapis
METAR-TAF:

METAR-TAF

Oro uostai :

Natchitoches Regional Airport

Natchitoches, Luiziana, Jungtinės Amerikos Valstijos

platuma: 31-44-09N, ilguma: 093-05-57W, Aukštis: 37 m

Dabartinis oras

Ataskaita buvo paskelbta 28 minutes, ne 22:55 UTC
Vėjas 11 kt iš Pietų su gūsio iki 20 kt
Temperatūra 29°C
Drėgmė 31%
Slėgis 1013 hPa
Matomumas: 16.1 km
Giedras dangus

METAR: KIER 082255Z AUTO 19011G20KT 10SM CLR 29/10 A2990 RMK AO2 T02940103

Laikas: 18:23 (23:23 UTC)


TAF: trūkstamas

Orai ataskaitas ir orų prognozės (METAR, TAF).

turimą stotys yra geltonos ir raudonos taškus žemėlapyje.

Perkelti pele per norėdami pamatyti stoties vardą.

Tada spustelėkite, norėdami matyti oro stebėjimo ir prognozės.

Norėdami pakeisti žemėlapį: spustelėkite ant žalios mygtukų su juodo kryžiaus žemyn,; žalią mygtuką su brūkšneliu, jei norite nutolinti; arba žalių rodyklių gretimoms žemėlapius.


METAR-TAF: